Terminal Aerodrome Forecast
Issued by NWS

Home | Current Version | Previous Version | Text Only | Print | Product List | Glossary On
Versions: 1 2 3 4 5 6 7 8 9 10 11 12 13 14 15 16 17 18 19 20 21 22 23 24
683
FTUS41 KCAR 191120
TAFFVE
TAF
KFVE 191120Z 1912/2012 27004KT P6SM VCSH SCT022 OVC035
      TEMPO 1914/1918 3SM -SHSN OVC020
     FM191800 34008KT P6SM VCSH OVC025
     FM200500 33009G16KT P6SM SCT030=

USA.gov is the U.S. government's official web portal to all federal, state and local government web resources and services.